RYR3258 EINN-EGBB
Flight info
| Callsign | RYR3258 |
|---|---|
| Flight time | 1h 10m |
| Altitude | 37000 |
| Route | ABAGU3A ABAGU DCT ENJEX DCT AVZAC DCT ICOSA DCT RUHUN DCT UNZIB DCT NUCHU L607 ALHAD DCT OCK Q3 HEMEL |
| Aircraft | B738/M-SDE2E3FGHIRWXY/LB1 |
Departure
| Time | 2026-05-06 07:12 |
|---|---|
| Airport | Shannon Airport (EINN) |
Arrival
| Time | 2026-05-06 08:22 |
|---|---|
| Airport | Birmingham Airport (EGBB) |
| Time | Latitude | Longitude | Altitude | Speed | Heading |
|---|---|---|---|---|---|
| 2026-05-06 06:58 | 52.69310 | -8.91830 | 21 ft | 0 kts | 221° |
| 2026-05-06 07:06 | 52.69310 | -8.91836 | 21 ft | 1 kts | 259° |
| 2026-05-06 07:06 | 52.69322 | -8.91832 | 22 ft | 3 kts | 41° |
| 2026-05-06 07:07 | 52.69347 | -8.91781 | 23 ft | 8 kts | 50° |
| 2026-05-06 07:07 | 52.69407 | -8.91774 | 23 ft | 10 kts | 329° |
| 2026-05-06 07:07 | 52.69444 | -8.91871 | 23 ft | 11 kts | 289° |
| 2026-05-06 07:07 | 52.69465 | -8.92002 | 21 ft | 13 kts | 284° |
| 2026-05-06 07:08 | 52.69489 | -8.92150 | 21 ft | 14 kts | 288° |
| 2026-05-06 07:08 | 52.69525 | -8.92290 | 22 ft | 13 kts | 297° |
| 2026-05-06 07:08 | 52.69586 | -8.92419 | 21 ft | 17 kts | 315° |
| 2026-05-06 07:08 | 52.69677 | -8.92564 | 22 ft | 19 kts | 315° |
| 2026-05-06 07:09 | 52.69765 | -8.92709 | 24 ft | 18 kts | 315° |
| 2026-05-06 07:09 | 52.69852 | -8.92850 | 24 ft | 17 kts | 315° |
| 2026-05-06 07:09 | 52.69930 | -8.92993 | 38 ft | 17 kts | 290° |
| 2026-05-06 07:09 | 52.69884 | -8.93157 | 39 ft | 17 kts | 232° |
| 2026-05-06 07:10 | 52.69796 | -8.93345 | 39 ft | 25 kts | 232° |
| 2026-05-06 07:10 | 52.69672 | -8.93612 | 37 ft | 33 kts | 232° |
| 2026-05-06 07:10 | 52.69534 | -8.93900 | 44 ft | 30 kts | 232° |
| 2026-05-06 07:10 | 52.69413 | -8.94154 | 47 ft | 20 kts | 227° |
| 2026-05-06 07:11 | 52.69311 | -8.94244 | 42 ft | 9 kts | 218° |
| 2026-05-06 07:11 | 52.69323 | -8.94321 | 47 ft | 8 kts | 343° |
| 2026-05-06 07:11 | 52.69365 | -8.94260 | 49 ft | 10 kts | 53° |
| 2026-05-06 07:11 | 52.69467 | -8.94044 | 46 ft | 53 kts | 52° |
| 2026-05-06 07:12 | 52.69841 | -8.93249 | 39 ft | 120 kts | 52° |
| 2026-05-06 07:12 | 52.70468 | -8.91925 | 82 ft | 167 kts | 52° |
| 2026-05-06 07:12 | 52.71162 | -8.90380 | 768 ft | 166 kts | 53° |
| 2026-05-06 07:12 | 52.71662 | -8.88707 | 1493 ft | 168 kts | 85° |
| 2026-05-06 07:13 | 52.71402 | -8.86790 | 2065 ft | 180 kts | 108° |
| 2026-05-06 07:13 | 52.70977 | -8.84715 | 2504 ft | 202 kts | 107° |
| 2026-05-06 07:13 | 52.70525 | -8.82406 | 2840 ft | 221 kts | 106° |
| 2026-05-06 07:13 | 52.70050 | -8.79889 | 3146 ft | 241 kts | 106° |
| 2026-05-06 07:14 | 52.69542 | -8.77099 | 3489 ft | 263 kts | 106° |
| 2026-05-06 07:14 | 52.69016 | -8.74193 | 4311 ft | 266 kts | 106° |
| 2026-05-06 07:14 | 52.68487 | -8.71254 | 5136 ft | 269 kts | 105° |
| 2026-05-06 07:14 | 52.67969 | -8.68285 | 5968 ft | 271 kts | 105° |
| 2026-05-06 07:15 | 52.67458 | -8.65292 | 6772 ft | 273 kts | 104° |
| 2026-05-06 07:15 | 52.66942 | -8.62244 | 7521 ft | 277 kts | 105° |
| 2026-05-06 07:15 | 52.66422 | -8.59158 | 8264 ft | 283 kts | 104° |
| 2026-05-06 07:15 | 52.65893 | -8.56007 | 9099 ft | 286 kts | 104° |
| 2026-05-06 07:16 | 52.65356 | -8.52827 | 9901 ft | 291 kts | 105° |
| 2026-05-06 07:16 | 52.64811 | -8.49580 | 10561 ft | 301 kts | 105° |
| 2026-05-06 07:16 | 52.64232 | -8.46118 | 10797 ft | 326 kts | 105° |
| 2026-05-06 07:16 | 52.63624 | -8.42491 | 11304 ft | 339 kts | 105° |
| 2026-05-06 07:17 | 52.62991 | -8.38720 | 12019 ft | 344 kts | 105° |
| 2026-05-06 07:17 | 52.62350 | -8.34909 | 12774 ft | 347 kts | 105° |
| 2026-05-06 07:17 | 52.61915 | -8.32319 | 13261 ft | 350 kts | 105° |
| 2026-05-06 07:17 | 52.61043 | -8.27161 | 14225 ft | 355 kts | 105° |
| 2026-05-06 07:18 | 52.60593 | -8.24503 | 14685 ft | 359 kts | 105° |
| 2026-05-06 07:18 | 52.59699 | -8.19227 | 15630 ft | 365 kts | 105° |
| 2026-05-06 07:18 | 52.59236 | -8.16506 | 16092 ft | 368 kts | 105° |
| 2026-05-06 07:18 | 52.58542 | -8.12430 | 16775 ft | 372 kts | 105° |
| 2026-05-06 07:19 | 52.57841 | -8.08316 | 17441 ft | 376 kts | 105° |
| 2026-05-06 07:19 | 52.57131 | -8.04163 | 18062 ft | 380 kts | 105° |
| 2026-05-06 07:19 | 52.56409 | -7.99951 | 18636 ft | 385 kts | 106° |
| 2026-05-06 07:19 | 52.55676 | -7.95697 | 19306 ft | 387 kts | 106° |
| 2026-05-06 07:20 | 52.54941 | -7.91427 | 19962 ft | 390 kts | 106° |
| 2026-05-06 07:20 | 52.54196 | -7.87109 | 20533 ft | 395 kts | 106° |
| 2026-05-06 07:20 | 52.53441 | -7.82744 | 21113 ft | 399 kts | 106° |
| 2026-05-06 07:20 | 52.52689 | -7.78405 | 21665 ft | 402 kts | 106° |
| 2026-05-06 07:21 | 52.51906 | -7.73901 | 22212 ft | 407 kts | 106° |
| 2026-05-06 07:21 | 52.51137 | -7.69486 | 22755 ft | 409 kts | 106° |
| 2026-05-06 07:21 | 52.50346 | -7.64978 | 23285 ft | 413 kts | 107° |
| 2026-05-06 07:21 | 52.49383 | -7.60520 | 23769 ft | 416 kts | 112° |
| 2026-05-06 07:22 | 52.48226 | -7.56145 | 24249 ft | 420 kts | 115° |
| 2026-05-06 07:22 | 52.46997 | -7.51794 | 24736 ft | 422 kts | 116° |
| 2026-05-06 07:22 | 52.45745 | -7.47418 | 25223 ft | 425 kts | 116° |
| 2026-05-06 07:22 | 52.44494 | -7.43009 | 25699 ft | 427 kts | 115° |
| 2026-05-06 07:23 | 52.43253 | -7.38571 | 26133 ft | 431 kts | 115° |
| 2026-05-06 07:23 | 52.42012 | -7.34080 | 26543 ft | 434 kts | 115° |
| 2026-05-06 07:23 | 52.40773 | -7.29566 | 26994 ft | 436 kts | 115° |
| 2026-05-06 07:23 | 52.39532 | -7.25031 | 27426 ft | 438 kts | 115° |
| 2026-05-06 07:24 | 52.38282 | -7.20463 | 27793 ft | 441 kts | 115° |
| 2026-05-06 07:24 | 52.37023 | -7.15868 | 28168 ft | 444 kts | 115° |
| 2026-05-06 07:24 | 52.35757 | -7.11253 | 28548 ft | 446 kts | 115° |
| 2026-05-06 07:24 | 52.34480 | -7.06615 | 28923 ft | 448 kts | 115° |
| 2026-05-06 07:25 | 52.33197 | -7.01961 | 29276 ft | 450 kts | 115° |
| 2026-05-06 07:25 | 52.31903 | -6.97282 | 29593 ft | 453 kts | 115° |
| 2026-05-06 07:25 | 52.30599 | -6.92574 | 29904 ft | 456 kts | 115° |
| 2026-05-06 07:25 | 52.29288 | -6.87854 | 30230 ft | 457 kts | 115° |
| 2026-05-06 07:26 | 52.27972 | -6.83118 | 30569 ft | 459 kts | 115° |
| 2026-05-06 07:26 | 52.26648 | -6.78368 | 30860 ft | 461 kts | 115° |
| 2026-05-06 07:26 | 52.25314 | -6.73591 | 31132 ft | 463 kts | 115° |
| 2026-05-06 07:26 | 52.23977 | -6.68814 | 31487 ft | 463 kts | 115° |
| 2026-05-06 07:27 | 52.22653 | -6.64094 | 31880 ft | 462 kts | 115° |
| 2026-05-06 07:27 | 52.21321 | -6.59353 | 32270 ft | 461 kts | 115° |
| 2026-05-06 07:27 | 52.19984 | -6.54610 | 32635 ft | 460 kts | 115° |
| 2026-05-06 07:27 | 52.18650 | -6.49879 | 32975 ft | 459 kts | 116° |
| 2026-05-06 07:28 | 52.17347 | -6.45266 | 33328 ft | 459 kts | 116° |
| 2026-05-06 07:28 | 52.16360 | -6.41779 | 33589 ft | 458 kts | 116° |
| 2026-05-06 07:28 | 52.14321 | -6.34560 | 34064 ft | 457 kts | 116° |
| 2026-05-06 07:29 | 52.13099 | -6.30277 | 34317 ft | 458 kts | 116° |
| 2026-05-06 07:29 | 52.11947 | -6.26248 | 34558 ft | 458 kts | 116° |
| 2026-05-06 07:29 | 52.10758 | -6.22091 | 34834 ft | 457 kts | 116° |
| 2026-05-06 07:29 | 52.09487 | -6.17648 | 35159 ft | 455 kts | 116° |
| 2026-05-06 07:30 | 52.08163 | -6.13024 | 35431 ft | 455 kts | 116° |
| 2026-05-06 07:30 | 52.06866 | -6.08504 | 35671 ft | 456 kts | 116° |
| 2026-05-06 07:30 | 52.05534 | -6.03872 | 35930 ft | 456 kts | 116° |
| 2026-05-06 07:30 | 52.04204 | -5.99198 | 36173 ft | 456 kts | 115° |
| 2026-05-06 07:31 | 52.02889 | -5.94518 | 36426 ft | 456 kts | 115° |
| 2026-05-06 07:31 | 52.01575 | -5.89833 | 36679 ft | 456 kts | 115° |
| 2026-05-06 07:31 | 52.00261 | -5.85149 | 36888 ft | 456 kts | 115° |
| 2026-05-06 07:31 | 51.98947 | -5.80480 | 37046 ft | 456 kts | 115° |
| 2026-05-06 07:32 | 51.96297 | -5.71123 | 37023 ft | 455 kts | 115° |
| 2026-05-06 07:32 | 51.93676 | -5.61907 | 37008 ft | 445 kts | 115° |
| 2026-05-06 07:33 | 51.91082 | -5.52821 | 37023 ft | 443 kts | 115° |
| 2026-05-06 07:33 | 51.88488 | -5.43779 | 37011 ft | 442 kts | 116° |
| 2026-05-06 07:34 | 51.85911 | -5.34822 | 37010 ft | 442 kts | 116° |
| 2026-05-06 07:34 | 51.83311 | -5.25826 | 37010 ft | 442 kts | 116° |
| 2026-05-06 07:35 | 51.80706 | -5.16827 | 37014 ft | 442 kts | 116° |
| 2026-05-06 07:35 | 51.78115 | -5.07804 | 37008 ft | 444 kts | 112° |
| 2026-05-06 07:36 | 51.76586 | -4.98159 | 37010 ft | 445 kts | 101° |
| 2026-05-06 07:36 | 51.75486 | -4.88319 | 37001 ft | 446 kts | 100° |
| 2026-05-06 07:37 | 51.74356 | -4.78463 | 37001 ft | 447 kts | 101° |
| 2026-05-06 07:37 | 51.73181 | -4.68601 | 37001 ft | 448 kts | 101° |
| 2026-05-06 07:38 | 51.71982 | -4.58739 | 36995 ft | 448 kts | 101° |
| 2026-05-06 07:38 | 51.70775 | -4.48870 | 36992 ft | 449 kts | 101° |
| 2026-05-06 07:39 | 51.69560 | -4.39007 | 36987 ft | 449 kts | 101° |
| 2026-05-06 07:39 | 51.68348 | -4.29217 | 36994 ft | 448 kts | 101° |
| 2026-05-06 07:40 | 51.67118 | -4.19371 | 36990 ft | 448 kts | 102° |
| 2026-05-06 07:40 | 51.65878 | -4.09528 | 37000 ft | 448 kts | 102° |
| 2026-05-06 07:41 | 51.64633 | -3.99692 | 37001 ft | 448 kts | 102° |
| 2026-05-06 07:41 | 51.63380 | -3.89864 | 37002 ft | 448 kts | 102° |
| 2026-05-06 07:42 | 51.62109 | -3.80049 | 37009 ft | 448 kts | 102° |
| 2026-05-06 07:42 | 51.60819 | -3.70240 | 37009 ft | 448 kts | 102° |
| 2026-05-06 07:43 | 51.59528 | -3.60447 | 37012 ft | 447 kts | 102° |
| 2026-05-06 07:43 | 51.58738 | -3.50538 | 37021 ft | 447 kts | 95° |
| 2026-05-06 07:44 | 51.58236 | -3.40583 | 37017 ft | 447 kts | 95° |
| 2026-05-06 07:44 | 51.57714 | -3.30639 | 37016 ft | 446 kts | 95° |
| 2026-05-06 07:45 | 51.57141 | -3.20724 | 37018 ft | 446 kts | 95° |
| 2026-05-06 07:45 | 51.56544 | -3.10811 | 37017 ft | 445 kts | 95° |
| 2026-05-06 07:46 | 51.55938 | -3.00929 | 37019 ft | 444 kts | 96° |
| 2026-05-06 07:46 | 51.55323 | -2.91049 | 37021 ft | 444 kts | 96° |
| 2026-05-06 07:47 | 51.54703 | -2.81201 | 37016 ft | 443 kts | 96° |
| 2026-05-06 07:47 | 51.54076 | -2.71362 | 37019 ft | 442 kts | 96° |
| 2026-05-06 07:48 | 51.53447 | -2.61616 | 37019 ft | 442 kts | 96° |
| 2026-05-06 07:48 | 51.52806 | -2.51824 | 37018 ft | 441 kts | 96° |
| 2026-05-06 07:49 | 51.52155 | -2.42023 | 37019 ft | 441 kts | 96° |
| 2026-05-06 07:49 | 51.51498 | -2.32237 | 37019 ft | 441 kts | 96° |
| 2026-05-06 07:50 | 51.50833 | -2.22438 | 37018 ft | 442 kts | 96° |
| 2026-05-06 07:50 | 51.50159 | -2.12634 | 37019 ft | 442 kts | 96° |
| 2026-05-06 07:51 | 51.49476 | -2.02824 | 37018 ft | 442 kts | 96° |
| 2026-05-06 07:51 | 51.48778 | -1.93034 | 37018 ft | 442 kts | 97° |
| 2026-05-06 07:52 | 51.48056 | -1.83245 | 37019 ft | 442 kts | 97° |
| 2026-05-06 07:52 | 51.47330 | -1.73452 | 37010 ft | 442 kts | 97° |
| 2026-05-06 07:53 | 51.46468 | -1.63696 | 37002 ft | 442 kts | 102° |
| 2026-05-06 07:53 | 51.45073 | -1.54107 | 37017 ft | 442 kts | 103° |
| 2026-05-06 07:54 | 51.43720 | -1.44481 | 36615 ft | 443 kts | 103° |
| 2026-05-06 07:54 | 51.43059 | -1.39688 | 36260 ft | 438 kts | 103° |
| 2026-05-06 07:54 | 51.42403 | -1.34947 | 35880 ft | 434 kts | 103° |
| 2026-05-06 07:55 | 51.41749 | -1.30243 | 35482 ft | 431 kts | 103° |
| 2026-05-06 07:55 | 51.41099 | -1.25583 | 35101 ft | 428 kts | 103° |
| 2026-05-06 07:55 | 51.40451 | -1.20949 | 34713 ft | 425 kts | 103° |
| 2026-05-06 07:55 | 51.39804 | -1.16348 | 34328 ft | 422 kts | 103° |
| 2026-05-06 07:56 | 51.39176 | -1.11776 | 33950 ft | 419 kts | 102° |
| 2026-05-06 07:56 | 51.38591 | -1.07231 | 33586 ft | 416 kts | 101° |
| 2026-05-06 07:56 | 51.38025 | -1.02708 | 33214 ft | 413 kts | 101° |
| 2026-05-06 07:56 | 51.37463 | -0.98215 | 32839 ft | 410 kts | 101° |
| 2026-05-06 07:57 | 51.36897 | -0.93750 | 32478 ft | 408 kts | 102° |
| 2026-05-06 07:57 | 51.36331 | -0.89319 | 32107 ft | 405 kts | 102° |
| 2026-05-06 07:57 | 51.35766 | -0.84919 | 31738 ft | 403 kts | 102° |
| 2026-05-06 07:57 | 51.35200 | -0.80538 | 31342 ft | 401 kts | 102° |
| 2026-05-06 07:58 | 51.34635 | -0.76184 | 30981 ft | 398 kts | 102° |
| 2026-05-06 07:58 | 51.34073 | -0.71860 | 30617 ft | 396 kts | 102° |
| 2026-05-06 07:58 | 51.33514 | -0.67565 | 30276 ft | 393 kts | 102° |
| 2026-05-06 07:58 | 51.32956 | -0.63303 | 29930 ft | 390 kts | 102° |
| 2026-05-06 07:59 | 51.32404 | -0.59069 | 29569 ft | 387 kts | 101° |
| 2026-05-06 07:59 | 51.32329 | -0.54800 | 29190 ft | 385 kts | 79° |
| 2026-05-06 07:59 | 51.33213 | -0.50797 | 28858 ft | 381 kts | 59° |
| 2026-05-06 07:59 | 51.34848 | -0.47524 | 28496 ft | 377 kts | 40° |
| 2026-05-06 08:00 | 51.37024 | -0.45257 | 28128 ft | 373 kts | 23° |
| 2026-05-06 08:00 | 51.39486 | -0.44105 | 27752 ft | 368 kts | 5° |
| 2026-05-06 08:00 | 51.42031 | -0.43832 | 27417 ft | 365 kts | 1° |
| 2026-05-06 08:00 | 51.44558 | -0.43718 | 27048 ft | 363 kts | 0° |
| 2026-05-06 08:01 | 51.47076 | -0.43640 | 26690 ft | 361 kts | 0° |
| 2026-05-06 08:01 | 51.49578 | -0.43554 | 26341 ft | 359 kts | 0° |
| 2026-05-06 08:01 | 51.52067 | -0.43451 | 25988 ft | 357 kts | 0° |
| 2026-05-06 08:01 | 51.54541 | -0.43335 | 25641 ft | 355 kts | 0° |
| 2026-05-06 08:02 | 51.57003 | -0.43209 | 25297 ft | 353 kts | 1° |
| 2026-05-06 08:02 | 51.59447 | -0.43077 | 24953 ft | 351 kts | 1° |
| 2026-05-06 08:02 | 51.61881 | -0.42943 | 24610 ft | 349 kts | 1° |
| 2026-05-06 08:02 | 51.64299 | -0.42809 | 24271 ft | 347 kts | 1° |
| 2026-05-06 08:03 | 51.66703 | -0.42675 | 23931 ft | 345 kts | 1° |
| 2026-05-06 08:03 | 51.69098 | -0.42541 | 23593 ft | 343 kts | 1° |
| 2026-05-06 08:03 | 51.71478 | -0.42409 | 23251 ft | 341 kts | 1° |
| 2026-05-06 08:03 | 51.73846 | -0.42277 | 22923 ft | 340 kts | 1° |
| 2026-05-06 08:04 | 51.76202 | -0.42146 | 22588 ft | 338 kts | 1° |
| 2026-05-06 08:04 | 51.78549 | -0.42067 | 22248 ft | 336 kts | 355° |
| 2026-05-06 08:04 | 51.80833 | -0.42693 | 21894 ft | 332 kts | 342° |
| 2026-05-06 08:04 | 51.82972 | -0.44101 | 21427 ft | 333 kts | 329° |
| 2026-05-06 08:05 | 51.84961 | -0.46020 | 21011 ft | 334 kts | 327° |
| 2026-05-06 08:05 | 51.86269 | -0.47337 | 20706 ft | 335 kts | 327° |
| 2026-05-06 08:05 | 51.88248 | -0.49330 | 20257 ft | 336 kts | 327° |
| 2026-05-06 08:05 | 51.90244 | -0.51313 | 19805 ft | 337 kts | 327° |
| 2026-05-06 08:06 | 51.92253 | -0.53292 | 19349 ft | 338 kts | 327° |
| 2026-05-06 08:06 | 51.94269 | -0.55272 | 18890 ft | 339 kts | 328° |
| 2026-05-06 08:06 | 51.96294 | -0.57254 | 18431 ft | 340 kts | 328° |
| 2026-05-06 08:06 | 51.98321 | -0.59233 | 17968 ft | 340 kts | 328° |
| 2026-05-06 08:07 | 52.00348 | -0.61212 | 17512 ft | 340 kts | 328° |
| 2026-05-06 08:07 | 52.02375 | -0.63195 | 17050 ft | 340 kts | 327° |
| 2026-05-06 08:07 | 52.04398 | -0.65179 | 16589 ft | 340 kts | 327° |
| 2026-05-06 08:07 | 52.06426 | -0.67168 | 16130 ft | 340 kts | 327° |
| 2026-05-06 08:08 | 52.08444 | -0.69151 | 15683 ft | 339 kts | 328° |
| 2026-05-06 08:08 | 52.10463 | -0.71137 | 15218 ft | 339 kts | 328° |
| 2026-05-06 08:08 | 52.12478 | -0.73121 | 14755 ft | 338 kts | 328° |
| 2026-05-06 08:08 | 52.14487 | -0.75101 | 14306 ft | 337 kts | 328° |
| 2026-05-06 08:09 | 52.16490 | -0.77079 | 13852 ft | 336 kts | 328° |
| 2026-05-06 08:09 | 52.18487 | -0.79051 | 13401 ft | 335 kts | 328° |
| 2026-05-06 08:09 | 52.20463 | -0.81004 | 12935 ft | 328 kts | 328° |
| 2026-05-06 08:09 | 52.22381 | -0.82901 | 12501 ft | 318 kts | 328° |
| 2026-05-06 08:10 | 52.24069 | -0.85122 | 12054 ft | 309 kts | 309° |
| 2026-05-06 08:10 | 52.25138 | -0.88119 | 11675 ft | 307 kts | 290° |
| 2026-05-06 08:10 | 52.25691 | -0.91474 | 11427 ft | 303 kts | 284° |
| 2026-05-06 08:10 | 52.26123 | -0.94738 | 11287 ft | 287 kts | 283° |
| 2026-05-06 08:11 | 52.26488 | -0.97898 | 10868 ft | 282 kts | 275° |
| 2026-05-06 08:11 | 52.26105 | -1.01047 | 10399 ft | 291 kts | 243° |
| 2026-05-06 08:11 | 52.24923 | -1.03711 | 10167 ft | 288 kts | 232° |
| 2026-05-06 08:11 | 52.23613 | -1.06174 | 9853 ft | 288 kts | 231° |
| 2026-05-06 08:12 | 52.22280 | -1.08611 | 9519 ft | 288 kts | 231° |
| 2026-05-06 08:12 | 52.20951 | -1.11018 | 9214 ft | 283 kts | 231° |
| 2026-05-06 08:12 | 52.19628 | -1.13397 | 8722 ft | 282 kts | 231° |
| 2026-05-06 08:12 | 52.18306 | -1.15762 | 8232 ft | 282 kts | 230° |
| 2026-05-06 08:13 | 52.16984 | -1.18115 | 7758 ft | 280 kts | 230° |
| 2026-05-06 08:13 | 52.15670 | -1.20454 | 7281 ft | 279 kts | 230° |
| 2026-05-06 08:13 | 52.14359 | -1.22783 | 6811 ft | 278 kts | 230° |
| 2026-05-06 08:13 | 52.13063 | -1.25104 | 6360 ft | 276 kts | 234° |
| 2026-05-06 08:14 | 52.12270 | -1.27848 | 5847 ft | 268 kts | 267° |
| 2026-05-06 08:14 | 52.12564 | -1.30750 | 5541 ft | 259 kts | 297° |
| 2026-05-06 08:14 | 52.13376 | -1.33343 | 5250 ft | 257 kts | 300° |
| 2026-05-06 08:14 | 52.14200 | -1.35930 | 5028 ft | 258 kts | 300° |
| 2026-05-06 08:15 | 52.15026 | -1.38524 | 4988 ft | 259 kts | 300° |
| 2026-05-06 08:15 | 52.15857 | -1.41129 | 4975 ft | 258 kts | 301° |
| 2026-05-06 08:15 | 52.16934 | -1.43406 | 4962 ft | 253 kts | 327° |
| 2026-05-06 08:15 | 52.18455 | -1.44807 | 4995 ft | 253 kts | 332° |
| 2026-05-06 08:16 | 52.19933 | -1.46324 | 4980 ft | 247 kts | 328° |
| 2026-05-06 08:16 | 52.21318 | -1.47881 | 4975 ft | 236 kts | 327° |
| 2026-05-06 08:16 | 52.22608 | -1.49338 | 4992 ft | 221 kts | 328° |
| 2026-05-06 08:16 | 52.23855 | -1.50740 | 4990 ft | 213 kts | 328° |
| 2026-05-06 08:17 | 52.25087 | -1.52119 | 4887 ft | 216 kts | 328° |
| 2026-05-06 08:17 | 52.26307 | -1.53485 | 4608 ft | 213 kts | 328° |
| 2026-05-06 08:17 | 52.27507 | -1.54831 | 4349 ft | 205 kts | 329° |
| 2026-05-06 08:17 | 52.28673 | -1.56133 | 4073 ft | 201 kts | 329° |
| 2026-05-06 08:18 | 52.29810 | -1.57404 | 3810 ft | 195 kts | 329° |
| 2026-05-06 08:18 | 52.30912 | -1.58637 | 3570 ft | 190 kts | 330° |
| 2026-05-06 08:18 | 52.31998 | -1.59849 | 3304 ft | 187 kts | 330° |
| 2026-05-06 08:18 | 52.33059 | -1.61038 | 3063 ft | 184 kts | 331° |
| 2026-05-06 08:19 | 52.34105 | -1.62206 | 2833 ft | 181 kts | 331° |
| 2026-05-06 08:19 | 52.35144 | -1.63365 | 2575 ft | 181 kts | 330° |
| 2026-05-06 08:19 | 52.36175 | -1.64511 | 2345 ft | 177 kts | 330° |
| 2026-05-06 08:19 | 52.37158 | -1.65615 | 2124 ft | 167 kts | 330° |
| 2026-05-06 08:20 | 52.38080 | -1.66649 | 1922 ft | 155 kts | 330° |
| 2026-05-06 08:20 | 52.38940 | -1.67608 | 1702 ft | 145 kts | 329° |
| 2026-05-06 08:20 | 52.39769 | -1.68531 | 1512 ft | 144 kts | 329° |
| 2026-05-06 08:20 | 52.40600 | -1.69459 | 1315 ft | 144 kts | 328° |
| 2026-05-06 08:21 | 52.41428 | -1.70385 | 1110 ft | 144 kts | 328° |
| 2026-05-06 08:21 | 52.42255 | -1.71304 | 914 ft | 143 kts | 328° |
| 2026-05-06 08:21 | 52.43075 | -1.72224 | 737 ft | 142 kts | 328° |
| 2026-05-06 08:21 | 52.43886 | -1.73128 | 548 ft | 141 kts | 328° |
| 2026-05-06 08:22 | 52.44694 | -1.74034 | 368 ft | 141 kts | 327° |
| 2026-05-06 08:22 | 52.45452 | -1.74881 | 325 ft | 115 kts | 325° |
| 2026-05-06 08:22 | 52.45945 | -1.75427 | 321 ft | 52 kts | 325° |
| 2026-05-06 08:22 | 52.46115 | -1.75613 | 316 ft | 15 kts | 338° |
| 2026-05-06 08:23 | 52.46180 | -1.75546 | 314 ft | 13 kts | 52° |
| 2026-05-06 08:23 | 52.46213 | -1.75413 | 312 ft | 12 kts | 110° |
| 2026-05-06 08:23 | 52.46148 | -1.75326 | 313 ft | 12 kts | 145° |
| 2026-05-06 08:23 | 52.46074 | -1.75244 | 319 ft | 14 kts | 146° |
| 2026-05-06 08:24 | 52.45982 | -1.75141 | 322 ft | 18 kts | 146° |
| 2026-05-06 08:24 | 52.45869 | -1.75015 | 324 ft | 22 kts | 146° |
| 2026-05-06 08:24 | 52.45735 | -1.74867 | 328 ft | 23 kts | 146° |
| 2026-05-06 08:24 | 52.45614 | -1.74731 | 325 ft | 17 kts | 146° |
| 2026-05-06 08:25 | 52.45527 | -1.74634 | 324 ft | 13 kts | 146° |
| 2026-05-06 08:25 | 52.45462 | -1.74533 | 327 ft | 13 kts | 118° |
| 2026-05-06 08:25 | 52.45421 | -1.74404 | 327 ft | 13 kts | 116° |
| 2026-05-06 08:25 | 52.45383 | -1.74277 | 331 ft | 12 kts | 116° |
| 2026-05-06 08:26 | 52.45342 | -1.74145 | 327 ft | 14 kts | 117° |
| 2026-05-06 08:26 | 52.45309 | -1.74015 | 328 ft | 10 kts | 91° |
| 2026-05-06 08:26 | 52.45335 | -1.73923 | 327 ft | 8 kts | 57° |
| 2026-05-06 08:26 | 52.45362 | -1.73880 | 331 ft | 5 kts | 0° |
| 2026-05-06 08:27 | 52.45393 | -1.73904 | 330 ft | 5 kts | 327° |
| 2026-05-06 08:27 | 52.45414 | -1.73927 | 330 ft | 0 kts | 326° |
| 2026-05-06 08:27 | 52.45415 | -1.73928 | 329 ft | 0 kts | 326° |